Orchard, TX (77464)

6:39 AM CST on February 19, 2017 (GMT -0600)
Riverwood Forest Weston Lakes | | Change Station
Active Advisory: Marine Fog Advisory

Elev 112 ft 29.66 °N, 95.94 °W | Updated 7 minutes ago

Overcast
Overcast
68.3 °F
Feels Like 68.3 °F
N
3.7
Wind Variable Wind from ESE

Today
High -- | Low -- °F
--% Chance of Precip.
Yesterday
High -- | Low -- °F
Precip. -- in
Pressure 29.91 in
Visibility 2.5 miles
Clouds Overcast 800 ft
Dew Point 67 °F
Humidity 96%
Rainfall 0.00 in
Snow Depth Not available.
6:59 AM 6:16 PM
Last Quarter, 43% visible
METAR KTME 191235Z AUTO 13007KT 2 1/2SM BR OVC008 21/20 A2991 RMK AO2
Pressure 29.91 in
Visibility 2.5 miles
Clouds Overcast 800 ft
Dew Point 67 °F
Humidity 96%
Rainfall 0.00 in
Snow Depth Not available.
6:59 AM 6:16 PM
Last Quarter, 43% visible
METAR KTME 191235Z AUTO 13007KT 2 1/2SM BR OVC008 21/20 A2991 RMK AO2

Get Your Daily Forecast Email!

Thanks for signing up!

Be on the lookout for a verification email in your inbox.

You'll start receiving the daily forecast at 8 AM.

×

10-Day Weather Forecast

Almanac

Astronomy

Feb. 19, 2017 Rise Set
Actual Time
Civil Twilight
Nautical Twilight
Astronomical Twilight
Moon
Length of Visible Light
Length of Day
Tomorrow will be .
, % of the Moon is Illuminated

Today's Extremes

State Highs State Lows

Community

WunderPhotos

Upload Photos

1,962,540 photos uploaded!

WunderBlog® & News

Nearby

Air Quality

  Air Quality AQ Index Pollutant
Not available.

Snow Depth

Station Depth Elevation

Earthquake Activity

City Distance Mag. Time & Date
Minimum magnitude displayed is 2.5.

Coastal Water Temperatures

Place Temperature

Stations

Nearby Weather Stations

Station Location Temp. Windchill Dew Point Humidity Wind Precip. Elev Updated Type
                   

Watches & Warnings

Marine Fog Advisory
Issued: 3:30 AM CST Feb. 19, 2017 – National Weather Service

... Dense fog advisory remains in effect until 10 am CST this
morning...

* visibility... less than 1 nm at times.

Precautionary/preparedness actions...

Mariners should be prepared for sudden changes in visibility over
short distances. Reduce your speed and keep a lookout for other
vessels... buoys and breakwaters. Keep your navigation lights on.
Inexperienced mariners... especially those operating smaller craft
or not equipped with radar... should consider seeking safe Harbor.